sensor_id;sensor_type;location;lat;lon;timestamp;P1;durP1;ratioP1;P2;durP2;ratioP2
57615;SDS011;43816;52.054;-9.494;2023-04-16T00:00:07;1.30;;;0.65;;
57615;SDS011;43816;52.054;-9.494;2023-04-16T00:00:17;0.90;;;0.60;;
57615;SDS011;43816;52.054;-9.494;2023-04-16T00:00:28;0.82;;;0.55;;
57615;SDS011;43816;52.054;-9.494;2023-04-16T00:00:38;0.80;;;0.50;;
57615;SDS011;43816;52.054;-9.494;2023-04-16T00:00:48;1.27;;;0.60;;
57615;SDS011;43816;52.054;-9.494;2023-04-16T00:00:58;1.27;;;0.65;;
57615;SDS011;43816;52.054;-9.494;2023-04-16T00:01:09;1.67;;;0.80;;
57615;SDS011;43816;52.054;-9.494;2023-04-16T00:01:20;1.25;;;0.82;;
57615;SDS011;43816;52.054;-9.494;2023-04-16T00:01:31;1.27;;;0.90;;
57615;SDS011;43816;52.054;-9.494;2023-04-16T00:01:41;1.17;;;0.90;;
57615;SDS011;43816;52.054;-9.494;2023-04-16T00:01:51;1.15;;;0.85;;
57615;SDS011;43816;52.054;-9.494;2023-04-16T00:02:01;1.07;;;0.77;;
57615;SDS011;43816;52.054;-9.494;2023-04-16T00:02:12;1.03;;;0.60;;
57615;SDS011;43816;52.054;-9.494;2023-04-16T00:02:23;1.20;;;0.70;;
57615;SDS011;43816;52.054;-9.494;2023-04-16T00:02:33;1.38;;;0.70;;
57615;SDS011;43816;52.054;-9.494;2023-04-16T00:02:44;1.27;;;0.70;;
57615;SDS011;43816;52.054;-9.494;2023-04-16T00:02:54;1.30;;;0.70;;
57615;SDS011;43816;52.054;-9.494;2023-04-16T00:03:04;1.10;;;0.70;;
57615;SDS011;43816;52.054;-9.494;2023-04-16T00:03:15;1.10;;;0.70;;
57615;SDS011;43816;52.054;-9.494;2023-04-16T00:03:25;1.13;;;0.67;;
57615;SDS011;43816;52.054;-9.494;2023-04-16T00:03:35;1.33;;;0.70;;
57615;SDS011;43816;52.054;-9.494;2023-04-16T00:03:45;1.83;;;0.70;;
57615;SDS011;43816;52.054;-9.494;2023-04-16T00:03:56;1.97;;;0.80;;
57615;SDS011;43816;52.054;-9.494;2023-04-16T00:04:06;2.25;;;0.88;;
57615;SDS011;43816;52.054;-9.494;2023-04-16T00:04:17;1.60;;;0.82;;
57615;SDS011;43816;52.054;-9.494;2023-04-16T00:04:27;1.43;;;0.70;;
57615;SDS011;43816;52.054;-9.494;2023-04-16T00:04:37;1.10;;;0.70;;
57615;SDS011;43816;52.054;-9.494;2023-04-16T00:04:48;0.90;;;0.77;;
57615;SDS011;43816;52.054;-9.494;2023-04-16T00:04:58;0.93;;;0.80;;
57615;SDS011;43816;52.054;-9.494;2023-04-16T00:05:08;1.00;;;0.70;;
57615;SDS011;43816;52.054;-9.494;2023-04-16T00:05:19;1.17;;;0.70;;
57615;SDS011;43816;52.054;-9.494;2023-04-16T00:05:29;1.17;;;0.73;;
57615;SDS011;43816;52.054;-9.494;2023-04-16T00:05:40;1.20;;;0.70;;
57615;SDS011;43816;52.054;-9.494;2023-04-16T00:05:50;0.90;;;0.70;;
57615;SDS011;43816;52.054;-9.494;2023-04-16T00:06:00;1.30;;;0.70;;
57615;SDS011;43816;52.054;-9.494;2023-04-16T00:06:11;1.17;;;0.80;;
57615;SDS011;43816;52.054;-9.494;2023-04-16T00:06:21;1.23;;;0.70;;
57615;SDS011;43816;52.054;-9.494;2023-04-16T00:06:32;0.73;;;0.70;;
57615;SDS011;43816;52.054;-9.494;2023-04-16T00:06:42;1.17;;;0.70;;
57615;SDS011;43816;52.054;-9.494;2023-04-16T00:06:53;1.63;;;0.80;;
57615;SDS011;43816;52.054;-9.494;2023-04-16T00:07:03;1.73;;;0.80;;
57615;SDS011;43816;52.054;-9.494;2023-04-16T00:07:14;1.35;;;0.70;;
57615;SDS011;43816;52.054;-9.494;2023-04-16T00:07:24;1.33;;;0.60;;
57615;SDS011;43816;52.054;-9.494;2023-04-16T00:07:34;1.33;;;0.60;;
57615;SDS011;43816;52.054;-9.494;2023-04-16T00:07:44;1.52;;;0.73;;
57615;SDS011;43816;52.054;-9.494;2023-04-16T00:07:55;1.27;;;0.80;;
57615;SDS011;43816;52.054;-9.494;2023-04-16T00:08:08;1.17;;;0.80;;
57615;SDS011;43816;52.054;-9.494;2023-04-16T00:08:18;1.20;;;0.75;;
57615;SDS011;43816;52.054;-9.494;2023-04-16T00:08:29;1.30;;;0.70;;
57615;SDS011;43816;52.054;-9.494;2023-04-16T00:08:39;1.20;;;0.70;;
57615;SDS011;43816;52.054;-9.494;2023-04-16T00:08:49;1.05;;;0.60;;
57615;SDS011;43816;52.054;-9.494;2023-04-16T00:08:59;1.00;;;0.60;;
57615;SDS011;43816;52.054;-9.494;2023-04-16T00:09:10;1.20;;;0.80;;
57615;SDS011;43816;52.054;-9.494;2023-04-16T00:09:20;1.27;;;0.88;;
57615;SDS011;43816;52.054;-9.494;2023-04-16T00:09:30;1.30;;;0.87;;
57615;SDS011;43816;52.054;-9.494;2023-04-16T00:09:40;1.10;;;0.70;;
57615;SDS011;43816;52.054;-9.494;2023-04-16T00:09:51;1.17;;;0.70;;
57615;SDS011;43816;52.054;-9.494;2023-04-16T00:10:01;1.08;;;0.70;;
57615;SDS011;43816;52.054;-9.494;2023-04-16T00:10:11;1.07;;;0.80;;
57615;SDS011;43816;52.054;-9.494;2023-04-16T00:10:22;1.17;;;0.80;;
57615;SDS011;43816;52.054;-9.494;2023-04-16T00:10:33;1.17;;;0.80;;
57615;SDS011;43816;52.054;-9.494;2023-04-16T00:10:44;1.45;;;0.88;;
57615;SDS011;43816;52.054;-9.494;2023-04-16T00:10:54;1.60;;;0.97;;
57615;SDS011;43816;52.054;-9.494;2023-04-16T00:11:04;1.50;;;0.90;;
57615;SDS011;43816;52.054;-9.494;2023-04-16T00:11:15;1.23;;;0.80;;
57615;SDS011;43816;52.054;-9.494;2023-04-16T00:11:25;1.10;;;0.80;;
57615;SDS011;43816;52.054;-9.494;2023-04-16T00:11:36;1.42;;;0.90;;
57615;SDS011;43816;52.054;-9.494;2023-04-16T00:11:46;1.60;;;0.90;;
57615;SDS011;43816;52.054;-9.494;2023-04-16T00:11:56;1.53;;;0.83;;
57615;SDS011;43816;52.054;-9.494;2023-04-16T00:12:07;1.42;;;0.82;;
57615;SDS011;43816;52.054;-9.494;2023-04-16T00:12:17;1.00;;;0.80;;
57615;SDS011;43816;52.054;-9.494;2023-04-16T00:12:27;1.37;;;0.80;;
57615;SDS011;43816;52.054;-9.494;2023-04-16T00:12:38;1.42;;;0.80;;
57615;SDS011;43816;52.054;-9.494;2023-04-16T00:12:48;1.70;;;0.80;;
57615;SDS011;43816;52.054;-9.494;2023-04-16T00:12:58;1.43;;;0.80;;
57615;SDS011;43816;52.054;-9.494;2023-04-16T00:13:08;1.48;;;0.80;;
57615;SDS011;43816;52.054;-9.494;2023-04-16T00:13:19;1.23;;;0.87;;
57615;SDS011;43816;52.054;-9.494;2023-04-16T00:13:29;0.88;;;0.75;;
57615;SDS011;43816;52.054;-9.494;2023-04-16T00:13:40;0.80;;;0.80;;
57615;SDS011;43816;52.054;-9.494;2023-04-16T00:13:50;1.00;;;0.70;;
57615;SDS011;43816;52.054;-9.494;2023-04-16T00:14:00;1.00;;;0.70;;
57615;SDS011;43816;52.054;-9.494;2023-04-16T00:14:10;1.27;;;0.60;;
57615;SDS011;43816;52.054;-9.494;2023-04-16T00:14:21;1.03;;;0.60;;
57615;SDS011;43816;52.054;-9.494;2023-04-16T00:14:31;1.05;;;0.70;;
57615;SDS011;43816;52.054;-9.494;2023-04-16T00:14:44;0.70;;;0.60;;
57615;SDS011;43816;52.054;-9.494;2023-04-16T00:14:54;1.00;;;0.70;;
57615;SDS011;43816;52.054;-9.494;2023-04-16T00:15:05;1.63;;;0.80;;
57615;SDS011;43816;52.054;-9.494;2023-04-16T00:15:15;1.80;;;0.82;;
57615;SDS011;43816;52.054;-9.494;2023-04-16T00:15:26;1.60;;;0.80;;
57615;SDS011;43816;52.054;-9.494;2023-04-16T00:15:36;1.30;;;0.80;;
57615;SDS011;43816;52.054;-9.494;2023-04-16T00:15:46;1.47;;;0.80;;
57615;SDS011;43816;52.054;-9.494;2023-04-16T00:15:59;1.60;;;0.80;;
57615;SDS011;43816;52.054;-9.494;2023-04-16T00:16:09;1.57;;;0.80;;
57615;SDS011;43816;52.054;-9.494;2023-04-16T00:16:20;1.42;;;0.77;;
57615;SDS011;43816;52.054;-9.494;2023-04-16T00:16:30;1.30;;;0.70;;
57615;SDS011;43816;52.054;-9.494;2023-04-16T00:16:41;1.27;;;0.80;;
57615;SDS011;43816;52.054;-9.494;2023-04-16T00:16:51;1.27;;;0.80;;
57615;SDS011;43816;52.054;-9.494;2023-04-16T00:17:01;1.37;;;0.80;;
57615;SDS011;43816;52.054;-9.494;2023-04-16T00:17:11;1.07;;;0.70;;
57615;SDS011;43816;52.054;-9.494;2023-04-16T00:17:22;0.93;;;0.70;;
57615;SDS011;43816;52.054;-9.494;2023-04-16T00:17:32;1.30;;;0.70;;
57615;SDS011;43816;52.054;-9.494;2023-04-16T00:17:45;1.63;;;0.80;;
57615;SDS011;43816;52.054;-9.494;2023-04-16T00:17:55;1.57;;;0.73;;
57615;SDS011;43816;52.054;-9.494;2023-04-16T00:18:05;1.47;;;0.70;;
57615;SDS011;43816;52.054;-9.494;2023-04-16T00:18:16;1.35;;;0.70;;
57615;SDS011;43816;52.054;-9.494;2023-04-16T00:18:29;1.48;;;0.85;;
57615;SDS011;43816;52.054;-9.494;2023-04-16T00:18:39;1.23;;;0.80;;
57615;SDS011;43816;52.054;-9.494;2023-04-16T00:18:50;1.25;;;0.80;;
57615;SDS011;43816;52.054;-9.494;2023-04-16T00:19:00;1.03;;;0.70;;
57615;SDS011;43816;52.054;-9.494;2023-04-16T00:19:10;1.03;;;0.70;;
57615;SDS011;43816;52.054;-9.494;2023-04-16T00:19:21;1.23;;;0.70;;
57615;SDS011;43816;52.054;-9.494;2023-04-16T00:19:31;1.23;;;0.70;;
57615;SDS011;43816;52.054;-9.494;2023-04-16T00:19:43;1.10;;;0.70;;
57615;SDS011;43816;52.054;-9.494;2023-04-16T00:19:54;0.93;;;0.70;;
57615;SDS011;43816;52.054;-9.494;2023-04-16T00:20:04;1.30;;;0.67;;
57615;SDS011;43816;52.054;-9.494;2023-04-16T00:20:15;1.25;;;0.60;;
57615;SDS011;43816;52.054;-9.494;2023-04-16T00:20:25;1.23;;;0.60;;
57615;SDS011;43816;52.054;-9.494;2023-04-16T00:20:35;0.83;;;0.60;;
57615;SDS011;43816;52.054;-9.494;2023-04-16T00:20:46;1.00;;;0.70;;
57615;SDS011;43816;52.054;-9.494;2023-04-16T00:20:57;1.08;;;0.70;;
57615;SDS011;43816;52.054;-9.494;2023-04-16T00:21:08;1.20;;;0.70;;
57615;SDS011;43816;52.054;-9.494;2023-04-16T00:21:18;1.30;;;0.70;;
57615;SDS011;43816;52.054;-9.494;2023-04-16T00:21:28;1.38;;;0.73;;
57615;SDS011;43816;52.054;-9.494;2023-04-16T00:21:38;1.40;;;0.80;;
57615;SDS011;43816;52.054;-9.494;2023-04-16T00:21:49;1.33;;;0.80;;
57615;SDS011;43816;52.054;-9.494;2023-04-16T00:21:59;1.27;;;0.65;;
57615;SDS011;43816;52.054;-9.494;2023-04-16T00:22:09;1.40;;;0.70;;
57615;SDS011;43816;52.054;-9.494;2023-04-16T00:22:20;1.48;;;0.70;;
57615;SDS011;43816;52.054;-9.494;2023-04-16T00:22:30;1.70;;;0.83;;
57615;SDS011;43816;52.054;-9.494;2023-04-16T00:22:40;1.47;;;0.80;;
57615;SDS011;43816;52.054;-9.494;2023-04-16T00:22:51;1.43;;;0.80;;
57615;SDS011;43816;52.054;-9.494;2023-04-16T00:23:01;1.20;;;0.73;;
57615;SDS011;43816;52.054;-9.494;2023-04-16T00:23:11;1.07;;;0.70;;
57615;SDS011;43816;52.054;-9.494;2023-04-16T00:23:21;1.00;;;0.60;;
57615;SDS011;43816;52.054;-9.494;2023-04-16T00:23:32;0.85;;;0.63;;
57615;SDS011;43816;52.054;-9.494;2023-04-16T00:23:42;0.77;;;0.60;;
57615;SDS011;43816;52.054;-9.494;2023-04-16T00:23:53;0.82;;;0.70;;
57615;SDS011;43816;52.054;-9.494;2023-04-16T00:24:03;1.13;;;0.70;;
57615;SDS011;43816;52.054;-9.494;2023-04-16T00:24:13;1.30;;;0.80;;
57615;SDS011;43816;52.054;-9.494;2023-04-16T00:24:23;1.25;;;0.85;;
57615;SDS011;43816;52.054;-9.494;2023-04-16T00:24:34;0.83;;;0.70;;
57615;SDS011;43816;52.054;-9.494;2023-04-16T00:24:44;0.90;;;0.70;;
57615;SDS011;43816;52.054;-9.494;2023-04-16T00:24:54;1.10;;;0.70;;
57615;SDS011;43816;52.054;-9.494;2023-04-16T00:25:05;1.33;;;0.80;;
57615;SDS011;43816;52.054;-9.494;2023-04-16T00:25:15;1.17;;;0.77;;
57615;SDS011;43816;52.054;-9.494;2023-04-16T00:25:26;1.03;;;0.70;;
57615;SDS011;43816;52.054;-9.494;2023-04-16T00:25:36;0.90;;;0.60;;
57615;SDS011;43816;52.054;-9.494;2023-04-16T00:25:46;1.77;;;0.65;;
57615;SDS011;43816;52.054;-9.494;2023-04-16T00:25:59;1.85;;;0.70;;
57615;SDS011;43816;52.054;-9.494;2023-04-16T00:26:10;1.47;;;0.60;;
57615;SDS011;43816;52.054;-9.494;2023-04-16T00:26:20;1.00;;;0.60;;
57615;SDS011;43816;52.054;-9.494;2023-04-16T00:26:30;0.90;;;0.60;;
57615;SDS011;43816;52.054;-9.494;2023-04-16T00:26:40;1.07;;;0.60;;
57615;SDS011;43816;52.054;-9.494;2023-04-16T00:26:51;1.00;;;0.60;;
57615;SDS011;43816;52.054;-9.494;2023-04-16T00:27:01;0.80;;;0.60;;
57615;SDS011;43816;52.054;-9.494;2023-04-16T00:27:11;0.77;;;0.70;;
57615;SDS011;43816;52.054;-9.494;2023-04-16T00:27:22;0.93;;;0.73;;
57615;SDS011;43816;52.054;-9.494;2023-04-16T00:27:32;1.08;;;0.80;;
57615;SDS011;43816;52.054;-9.494;2023-04-16T00:27:42;1.30;;;0.73;;
57615;SDS011;43816;52.054;-9.494;2023-04-16T00:27:52;1.30;;;0.70;;
57615;SDS011;43816;52.054;-9.494;2023-04-16T00:28:03;1.57;;;0.70;;
57615;SDS011;43816;52.054;-9.494;2023-04-16T00:28:14;1.48;;;0.77;;
57615;SDS011;43816;52.054;-9.494;2023-04-16T00:28:24;1.40;;;0.80;;
57615;SDS011;43816;52.054;-9.494;2023-04-16T00:28:35;1.15;;;0.80;;
57615;SDS011;43816;52.054;-9.494;2023-04-16T00:28:45;1.20;;;0.80;;
57615;SDS011;43816;52.054;-9.494;2023-04-16T00:28:56;1.15;;;0.68;;
57615;SDS011;43816;52.054;-9.494;2023-04-16T00:29:06;1.00;;;0.67;;
57615;SDS011;43816;52.054;-9.494;2023-04-16T00:29:16;1.03;;;0.70;;
57615;SDS011;43816;52.054;-9.494;2023-04-16T00:29:27;0.82;;;0.60;;
57615;SDS011;43816;52.054;-9.494;2023-04-16T00:29:37;1.03;;;0.60;;
57615;SDS011;43816;52.054;-9.494;2023-04-16T00:29:47;0.90;;;0.60;;
57615;SDS011;43816;52.054;-9.494;2023-04-16T00:29:57;1.40;;;0.80;;
57615;SDS011;43816;52.054;-9.494;2023-04-16T00:30:08;1.43;;;0.80;;
57615;SDS011;43816;52.054;-9.494;2023-04-16T00:30:18;1.63;;;0.70;;
57615;SDS011;43816;52.054;-9.494;2023-04-16T00:30:29;1.35;;;0.65;;
57615;SDS011;43816;52.054;-9.494;2023-04-16T00:30:39;1.20;;;0.63;;
57615;SDS011;43816;52.054;-9.494;2023-04-16T00:30:49;1.13;;;0.60;;
57615;SDS011;43816;52.054;-9.494;2023-04-16T00:31:00;1.08;;;0.70;;
57615;SDS011;43816;52.054;-9.494;2023-04-16T00:31:10;0.93;;;0.70;;
57615;SDS011;43816;52.054;-9.494;2023-04-16T00:31:27;1.10;;;0.80;;
57615;SDS011;43816;52.054;-9.494;2023-04-16T00:31:42;1.05;;;0.70;;
57615;SDS011;43816;52.054;-9.494;2023-04-16T00:31:52;1.00;;;0.60;;
57615;SDS011;43816;52.054;-9.494;2023-04-16T00:32:03;0.90;;;0.60;;
57615;SDS011;43816;52.054;-9.494;2023-04-16T00:32:13;0.97;;;0.60;;
57615;SDS011;43816;52.054;-9.494;2023-04-16T00:32:23;1.02;;;0.70;;
57615;SDS011;43816;52.054;-9.494;2023-04-16T00:32:34;1.20;;;0.70;;
57615;SDS011;43816;52.054;-9.494;2023-04-16T00:32:44;1.37;;;0.80;;
57615;SDS011;43816;52.054;-9.494;2023-04-16T00:32:54;1.20;;;0.80;;
57615;SDS011;43816;52.054;-9.494;2023-04-16T00:33:08;1.38;;;0.80;;
57615;SDS011;43816;52.054;-9.494;2023-04-16T00:33:18;1.23;;;0.70;;
57615;SDS011;43816;52.054;-9.494;2023-04-16T00:33:28;1.30;;;0.70;;
57615;SDS011;43816;52.054;-9.494;2023-04-16T00:33:39;1.17;;;0.70;;
57615;SDS011;43816;52.054;-9.494;2023-04-16T00:33:49;1.15;;;0.75;;
57615;SDS011;43816;52.054;-9.494;2023-04-16T00:33:59;1.20;;;0.80;;
57615;SDS011;43816;52.054;-9.494;2023-04-16T00:34:09;1.10;;;0.70;;
57615;SDS011;43816;52.054;-9.494;2023-04-16T00:34:20;1.10;;;0.70;;
57615;SDS011;43816;52.054;-9.494;2023-04-16T00:34:30;0.90;;;0.70;;
57615;SDS011;43816;52.054;-9.494;2023-04-16T00:34:40;1.27;;;0.80;;
57615;SDS011;43816;52.054;-9.494;2023-04-16T00:34:51;1.17;;;0.80;;
57615;SDS011;43816;52.054;-9.494;2023-04-16T00:35:01;1.35;;;1.00;;
57615;SDS011;43816;52.054;-9.494;2023-04-16T00:35:11;1.20;;;0.90;;
57615;SDS011;43816;52.054;-9.494;2023-04-16T00:35:21;1.30;;;0.83;;
57615;SDS011;43816;52.054;-9.494;2023-04-16T00:35:32;1.30;;;0.77;;
57615;SDS011;43816;52.054;-9.494;2023-04-16T00:35:44;1.70;;;0.80;;
57615;SDS011;43816;52.054;-9.494;2023-04-16T00:35:54;1.50;;;0.70;;
57615;SDS011;43816;52.054;-9.494;2023-04-16T00:36:05;1.48;;;0.70;;
57615;SDS011;43816;52.054;-9.494;2023-04-16T00:36:15;1.20;;;0.70;;
57615;SDS011;43816;52.054;-9.494;2023-04-16T00:36:26;1.30;;;0.80;;
57615;SDS011;43816;52.054;-9.494;2023-04-16T00:36:37;0.93;;;0.73;;
57615;SDS011;43816;52.054;-9.494;2023-04-16T00:36:47;0.73;;;0.70;;
57615;SDS011;43816;52.054;-9.494;2023-04-16T00:36:58;0.93;;;0.70;;
57615;SDS011;43816;52.054;-9.494;2023-04-16T00:37:08;1.20;;;0.73;;
57615;SDS011;43816;52.054;-9.494;2023-04-16T00:37:18;1.47;;;0.80;;
57615;SDS011;43816;52.054;-9.494;2023-04-16T00:37:29;1.48;;;0.82;;
57615;SDS011;43816;52.054;-9.494;2023-04-16T00:37:39;1.23;;;0.90;;
57615;SDS011;43816;52.054;-9.494;2023-04-16T00:37:50;1.17;;;1.00;;
57615;SDS011;43816;52.054;-9.494;2023-04-16T00:38:01;1.07;;;0.90;;
57615;SDS011;43816;52.054;-9.494;2023-04-16T00:38:12;1.23;;;0.80;;
57615;SDS011;43816;52.054;-9.494;2023-04-16T00:38:24;1.02;;;0.70;;
57615;SDS011;43816;52.054;-9.494;2023-04-16T00:38:34;1.15;;;0.80;;
57615;SDS011;43816;52.054;-9.494;2023-04-16T00:38:46;1.10;;;0.70;;
57615;SDS011;43816;52.054;-9.494;2023-04-16T00:38:56;0.97;;;0.63;;
57615;SDS011;43816;52.054;-9.494;2023-04-16T00:39:06;1.00;;;0.65;;
57615;SDS011;43816;52.054;-9.494;2023-04-16T00:39:16;1.40;;;0.83;;
57615;SDS011;43816;52.054;-9.494;2023-04-16T00:39:27;1.50;;;0.90;;
57615;SDS011;43816;52.054;-9.494;2023-04-16T00:39:37;1.35;;;0.85;;
57615;SDS011;43816;52.054;-9.494;2023-04-16T00:39:47;1.07;;;0.70;;
57615;SDS011;43816;52.054;-9.494;2023-04-16T00:39:59;1.38;;;0.75;;
57615;SDS011;43816;52.054;-9.494;2023-04-16T00:40:10;1.23;;;0.80;;
57615;SDS011;43816;52.054;-9.494;2023-04-16T00:40:20;1.13;;;0.80;;
57615;SDS011;43816;52.054;-9.494;2023-04-16T00:40:31;0.87;;;0.80;;
57615;SDS011;43816;52.054;-9.494;2023-04-16T00:40:41;1.02;;;0.80;;
57615;SDS011;43816;52.054;-9.494;2023-04-16T00:40:51;0.90;;;0.80;;
57615;SDS011;43816;52.054;-9.494;2023-04-16T00:41:02;0.90;;;0.80;;
57615;SDS011;43816;52.054;-9.494;2023-04-16T00:41:12;0.93;;;0.80;;
57615;SDS011;43816;52.054;-9.494;2023-04-16T00:41:22;1.20;;;0.83;;
57615;SDS011;43816;52.054;-9.494;2023-04-16T00:41:33;1.30;;;0.70;;
57615;SDS011;43816;52.054;-9.494;2023-04-16T00:41:44;1.23;;;0.70;;
57615;SDS011;43816;52.054;-9.494;2023-04-16T00:41:55;1.15;;;0.77;;
57615;SDS011;43816;52.054;-9.494;2023-04-16T00:42:05;1.07;;;0.73;;
57615;SDS011;43816;52.054;-9.494;2023-04-16T00:42:15;1.27;;;0.77;;
57615;SDS011;43816;52.054;-9.494;2023-04-16T00:42:26;1.15;;;0.70;;
57615;SDS011;43816;52.054;-9.494;2023-04-16T00:42:36;1.17;;;0.80;;
57615;SDS011;43816;52.054;-9.494;2023-04-16T00:42:46;1.00;;;0.87;;
57615;SDS011;43816;52.054;-9.494;2023-04-16T00:42:57;2.10;;;0.90;;
57615;SDS011;43816;52.054;-9.494;2023-04-16T00:43:07;1.90;;;0.80;;
57615;SDS011;43816;52.054;-9.494;2023-04-16T00:43:21;2.20;;;0.70;;
57615;SDS011;43816;52.054;-9.494;2023-04-16T00:43:32;1.20;;;0.70;;
57615;SDS011;43816;52.054;-9.494;2023-04-16T00:43:42;1.07;;;0.70;;
57615;SDS011;43816;52.054;-9.494;2023-04-16T00:43:52;1.17;;;0.70;;
57615;SDS011;43816;52.054;-9.494;2023-04-16T00:44:02;1.20;;;0.73;;
57615;SDS011;43816;52.054;-9.494;2023-04-16T00:44:13;1.03;;;0.70;;
57615;SDS011;43816;52.054;-9.494;2023-04-16T00:44:23;0.70;;;0.70;;
57615;SDS011;43816;52.054;-9.494;2023-04-16T00:44:33;0.77;;;0.73;;
57615;SDS011;43816;52.054;-9.494;2023-04-16T00:44:44;0.90;;;0.70;;
57615;SDS011;43816;52.054;-9.494;2023-04-16T00:44:54;0.93;;;0.70;;
57615;SDS011;43816;52.054;-9.494;2023-04-16T00:45:04;1.00;;;0.60;;
57615;SDS011;43816;52.054;-9.494;2023-04-16T00:45:15;0.95;;;0.63;;
57615;SDS011;43816;52.054;-9.494;2023-04-16T00:45:25;0.97;;;0.60;;
57615;SDS011;43816;52.054;-9.494;2023-04-16T00:45:36;0.90;;;0.70;;
57615;SDS011;43816;52.054;-9.494;2023-04-16T00:45:47;0.75;;;0.60;;
57615;SDS011;43816;52.054;-9.494;2023-04-16T00:45:57;0.98;;;0.75;;
57615;SDS011;43816;52.054;-9.494;2023-04-16T00:46:08;1.10;;;0.80;;
57615;SDS011;43816;52.054;-9.494;2023-04-16T00:46:18;1.35;;;0.80;;
57615;SDS011;43816;52.054;-9.494;2023-04-16T00:46:32;1.15;;;0.80;;
57615;SDS011;43816;52.054;-9.494;2023-04-16T00:46:43;1.25;;;0.77;;
57615;SDS011;43816;52.054;-9.494;2023-04-16T00:46:54;0.93;;;0.73;;
57615;SDS011;43816;52.054;-9.494;2023-04-16T00:47:05;0.80;;;0.77;;
57615;SDS011;43816;52.054;-9.494;2023-04-16T00:47:16;0.88;;;0.85;;
57615;SDS011;43816;52.054;-9.494;2023-04-16T00:47:28;1.00;;;0.80;;
57615;SDS011;43816;52.054;-9.494;2023-04-16T00:47:39;1.10;;;0.80;;
57615;SDS011;43816;52.054;-9.494;2023-04-16T00:47:50;0.85;;;0.70;;
57615;SDS011;43816;52.054;-9.494;2023-04-16T00:48:00;0.83;;;0.60;;
57615;SDS011;43816;52.054;-9.494;2023-04-16T00:48:11;1.10;;;0.63;;
57615;SDS011;43816;52.054;-9.494;2023-04-16T00:48:21;1.10;;;0.70;;
57615;SDS011;43816;52.054;-9.494;2023-04-16T00:48:32;0.93;;;0.70;;
57615;SDS011;43816;52.054;-9.494;2023-04-16T00:48:43;1.25;;;0.70;;
57615;SDS011;43816;52.054;-9.494;2023-04-16T00:48:54;1.30;;;0.70;;
57615;SDS011;43816;52.054;-9.494;2023-04-16T00:49:05;1.60;;;0.80;;
57615;SDS011;43816;52.054;-9.494;2023-04-16T00:49:15;1.33;;;0.73;;
57615;SDS011;43816;52.054;-9.494;2023-04-16T00:49:25;1.70;;;0.80;;
57615;SDS011;43816;52.054;-9.494;2023-04-16T00:49:36;1.50;;;0.80;;
57615;SDS011;43816;52.054;-9.494;2023-04-16T00:49:47;1.23;;;0.70;;
57615;SDS011;43816;52.054;-9.494;2023-04-16T00:49:57;0.77;;;0.68;;
57615;SDS011;43816;52.054;-9.494;2023-04-16T00:50:08;0.80;;;0.70;;
57615;SDS011;43816;52.054;-9.494;2023-04-16T00:50:20;1.20;;;0.80;;
57615;SDS011;43816;52.054;-9.494;2023-04-16T00:50:30;1.52;;;0.85;;
57615;SDS011;43816;52.054;-9.494;2023-04-16T00:50:42;1.92;;;0.80;;
57615;SDS011;43816;52.054;-9.494;2023-04-16T00:50:52;1.70;;;0.90;;
57615;SDS011;43816;52.054;-9.494;2023-04-16T00:51:06;1.40;;;0.80;;
57615;SDS011;43816;52.054;-9.494;2023-04-16T00:51:17;1.02;;;0.82;;
57615;SDS011;43816;52.054;-9.494;2023-04-16T00:51:28;0.98;;;0.77;;
57615;SDS011;43816;52.054;-9.494;2023-04-16T00:51:39;1.17;;;0.80;;
57615;SDS011;43816;52.054;-9.494;2023-04-16T00:51:50;1.30;;;0.90;;
57615;SDS011;43816;52.054;-9.494;2023-04-16T00:52:00;1.27;;;0.90;;
57615;SDS011;43816;52.054;-9.494;2023-04-16T00:52:11;1.10;;;0.80;;
57615;SDS011;43816;52.054;-9.494;2023-04-16T00:52:21;1.15;;;0.70;;
57615;SDS011;43816;52.054;-9.494;2023-04-16T00:52:31;1.33;;;0.70;;
57615;SDS011;43816;52.054;-9.494;2023-04-16T00:52:44;1.60;;;0.75;;
57615;SDS011;43816;52.054;-9.494;2023-04-16T00:52:56;2.40;;;0.80;;
57615;SDS011;43816;52.054;-9.494;2023-04-16T00:53:06;2.20;;;0.80;;
57615;SDS011;43816;52.054;-9.494;2023-04-16T00:53:17;1.27;;;0.77;;
57615;SDS011;43816;52.054;-9.494;2023-04-16T00:53:28;1.17;;;0.77;;
57615;SDS011;43816;52.054;-9.494;2023-04-16T00:53:38;1.08;;;0.82;;
57615;SDS011;43816;52.054;-9.494;2023-04-16T00:53:49;0.97;;;0.77;;
57615;SDS011;43816;52.054;-9.494;2023-04-16T00:53:59;1.07;;;0.80;;
57615;SDS011;43816;52.054;-9.494;2023-04-16T00:54:10;1.42;;;0.82;;
57615;SDS011;43816;52.054;-9.494;2023-04-16T00:54:21;2.70;;;0.98;;
57615;SDS011;43816;52.054;-9.494;2023-04-16T00:54:31;2.67;;;0.93;;
57615;SDS011;43816;52.054;-9.494;2023-04-16T00:54:42;2.28;;;0.80;;
57615;SDS011;43816;52.054;-9.494;2023-04-16T00:54:52;1.13;;;0.80;;
57615;SDS011;43816;52.054;-9.494;2023-04-16T00:55:03;1.40;;;0.90;;
57615;SDS011;43816;52.054;-9.494;2023-04-16T00:55:16;1.40;;;0.90;;
57615;SDS011;43816;52.054;-9.494;2023-04-16T00:55:26;1.40;;;0.87;;
57615;SDS011;43816;52.054;-9.494;2023-04-16T00:55:37;1.00;;;0.80;;
57615;SDS011;43816;52.054;-9.494;2023-04-16T00:55:48;1.20;;;0.80;;
57615;SDS011;43816;52.054;-9.494;2023-04-16T00:56:05;1.02;;;0.80;;
57615;SDS011;43816;52.054;-9.494;2023-04-16T00:56:16;0.88;;;0.77;;
57615;SDS011;43816;52.054;-9.494;2023-04-16T00:56:26;1.00;;;0.70;;
57615;SDS011;43816;52.054;-9.494;2023-04-16T00:56:37;1.27;;;0.60;;
57615;SDS011;43816;52.054;-9.494;2023-04-16T00:56:48;1.08;;;0.60;;
57615;SDS011;43816;52.054;-9.494;2023-04-16T00:57:00;1.65;;;0.73;;
57615;SDS011;43816;52.054;-9.494;2023-04-16T00:57:11;1.98;;;0.88;;
57615;SDS011;43816;52.054;-9.494;2023-04-16T00:57:23;2.38;;;0.98;;
57615;SDS011;43816;52.054;-9.494;2023-04-16T00:57:33;1.90;;;0.90;;
57615;SDS011;43816;52.054;-9.494;2023-04-16T00:57:44;1.57;;;0.80;;
57615;SDS011;43816;52.054;-9.494;2023-04-16T00:57:54;1.33;;;0.80;;
57615;SDS011;43816;52.054;-9.494;2023-04-16T00:58:04;1.40;;;0.73;;
57615;SDS011;43816;52.054;-9.494;2023-04-16T00:58:16;1.35;;;0.77;;
57615;SDS011;43816;52.054;-9.494;2023-04-16T00:58:27;1.00;;;0.60;;
57615;SDS011;43816;52.054;-9.494;2023-04-16T00:58:38;1.23;;;0.70;;
57615;SDS011;43816;52.054;-9.494;2023-04-16T00:58:48;1.47;;;0.80;;
57615;SDS011;43816;52.054;-9.494;2023-04-16T00:58:59;1.60;;;0.98;;
57615;SDS011;43816;52.054;-9.494;2023-04-16T00:59:10;1.73;;;1.00;;
57615;SDS011;43816;52.054;-9.494;2023-04-16T00:59:20;1.88;;;0.98;;
57615;SDS011;43816;52.054;-9.494;2023-04-16T00:59:31;1.98;;;0.82;;
57615;SDS011;43816;52.054;-9.494;2023-04-16T00:59:41;1.70;;;0.87;;
57615;SDS011;43816;52.054;-9.494;2023-04-16T00:59:52;1.73;;;0.90;;
57615;SDS011;43816;52.054;-9.494;2023-04-16T01:00:03;1.40;;;0.88;;
57615;SDS011;43816;52.054;-9.494;2023-04-16T01:00:14;1.48;;;0.93;;
57615;SDS011;43816;52.054;-9.494;2023-04-16T01:00:24;1.47;;;1.00;;
57615;SDS011;43816;52.054;-9.494;2023-04-16T01:00:34;1.80;;;1.03;;
57615;SDS011;43816;52.054;-9.494;2023-04-16T01:00:45;1.92;;;1.00;;
57615;SDS011;43816;52.054;-9.494;2023-04-16T01:00:55;1.80;;;0.93;;
57615;SDS011;43816;52.054;-9.494;2023-04-16T01:01:05;1.50;;;0.87;;
57615;SDS011;43816;52.054;-9.494;2023-04-16T01:01:16;1.20;;;0.80;;
57615;SDS011;43816;52.054;-9.494;2023-04-16T01:01:26;1.60;;;0.90;;
57615;SDS011;43816;52.054;-9.494;2023-04-16T01:01:36;1.77;;;0.90;;
57615;SDS011;43816;52.054;-9.494;2023-04-16T01:01:46;1.98;;;1.00;;
57615;SDS011;43816;52.054;-9.494;2023-04-16T01:01:57;1.60;;;0.87;;
57615;SDS011;43816;52.054;-9.494;2023-04-16T01:02:07;1.87;;;0.93;;
57615;SDS011;43816;52.054;-9.494;2023-04-16T01:02:17;1.70;;;0.80;;
57615;SDS011;43816;52.054;-9.494;2023-04-16T01:02:28;1.60;;;0.80;;
57615;SDS011;43816;52.054;-9.494;2023-04-16T01:02:38;1.27;;;0.80;;
57615;SDS011;43816;52.054;-9.494;2023-04-16T01:02:48;1.52;;;0.90;;
57615;SDS011;43816;52.054;-9.494;2023-04-16T01:02:59;1.60;;;0.90;;